Terminal Aerodrome Forecast
Issued by NWS

Current Version | Previous Version | Text Only | Print | Product List | Glossary On
Versions: 1 2 3 4 5 6 7 8 9 10 11 12 13 14 15 16 17
401
FTUS42 KGSP 201740
TAFAND
TAF
KAND 201740Z 2018/2118 27008KT P6SM BKN015
      TEMPO 2018/2020 SCT015
     FM202000 22003KT P6SM SCT025
     FM210600 VRB02KT 5SM BR BKN015
     FM210800 VRB02KT 1SM BR BKN003
     FM211300 VRB02KT 3SM BR OVC008 PROB30 2113/2118 2SM SHRA
      OVC006=

USA.gov is the U.S. government's official web portal to all federal, state and local government web resources and services.